Time;durP1;ratioP1;P1;durP2;ratioP2;P2;SDS_P1;SDS_P2;PMS_P1;PMS_P2;Temp;Humidity;BMP_temperature;BMP_pressure;BME280_temperature;BME280_humidity;BME280_pressure;Samples;Min_cycle;Max_cycle;Signal;HPM_P1;HPM_P2
2021/04/08 00:00:24;;;;;;;110.03;47.20;;;51.70;2227.20;;;;;;4977986;28;20146;-79
2021/04/08 00:02:49;;;;;;;116.20;49.88;;;51.50;2227.20;;;;;;4995487;28;20026;-76
2021/04/08 00:05:15;;;;;;;102.78;45.80;;;51.40;2227.20;;;;;;4977635;28;20389;-78
2021/04/08 00:07:42;;;;;;;91.22;43.47;;;51.40;2227.20;;;;;;4995383;28;20117;-78
2021/04/08 00:10:09;;;;;;;78.82;41.92;;;51.40;2227.20;;;;;;4977900;28;20161;-80
2021/04/08 00:12:34;;;;;;;73.03;36.30;;;51.40;2227.20;;;;;;4977403;28;20062;-78
2021/04/08 00:15:00;;;;;;;60.13;31.70;;;51.50;2227.20;;;;;;4978399;28;20022;-80
2021/04/08 00:17:26;;;;;;;65.57;32.60;;;51.40;2227.20;;;;;;4995168;28;20045;-80
2021/04/08 00:19:52;;;;;;;87.32;38.50;;;51.30;2227.20;;;;;;4977481;28;20519;-77
2021/04/08 00:22:18;;;;;;;54.25;28.20;;;51.40;2227.20;;;;;;4993661;28;20045;-77
2021/04/08 00:24:44;;;;;;;68.10;31.80;;;51.30;2227.20;;;;;;4994724;28;20380;-75
2021/04/08 00:27:09;;;;;;;63.92;31.25;;;51.40;2227.20;;;;;;4992008;28;20026;-78
2021/04/08 00:29:35;;;;;;;90.30;38.22;;;51.30;2227.20;;;;;;4977397;28;20038;-78
2021/04/08 00:32:01;;;;;;;47.00;24.80;;;51.20;2227.20;;;;;;4976691;28;20034;-78
2021/04/08 00:34:27;;;;;;;60.55;30.70;;;51.30;2227.20;;;;;;4977000;28;20378;-79
2021/04/08 00:36:53;;;;;;;66.65;31.15;;;51.30;2227.20;;;;;;4977276;28;20038;-78
2021/04/08 00:39:18;;;;;;;34.65;20.70;;;51.40;2227.20;;;;;;4994549;28;20065;-79
2021/04/08 00:41:44;;;;;;;52.22;26.15;;;51.40;2227.20;;;;;;4994099;28;20038;-77
2021/04/08 00:44:10;;;;;;;50.33;23.13;;;51.30;2227.20;;;;;;4977395;28;20022;-79
2021/04/08 00:46:36;;;;;;;47.85;23.17;;;51.40;2227.20;;;;;;4994145;28;20529;-77
2021/04/08 00:49:02;;;;;;;105.15;44.55;;;51.40;2227.20;;;;;;4994753;28;20026;-77
2021/04/08 00:51:28;;;;;;;121.63;46.85;;;51.40;2227.20;;;;;;4994699;28;20027;-78
2021/04/08 00:53:55;;;;;;;63.63;33.30;;;51.50;2227.20;;;;;;4994631;28;20479;-78
2021/04/08 00:56:24;;;;;;;52.55;27.13;;;51.30;2227.20;;;;;;4977163;28;20034;-78
2021/04/08 00:58:50;;;;;;;50.33;29.50;;;51.30;2227.20;;;;;;4976853;28;20034;-78
2021/04/08 01:01:17;;;;;;;68.32;33.08;;;51.30;2227.20;;;;;;4976554;28;20030;-78
2021/04/08 01:03:43;;;;;;;66.75;31.17;;;51.40;2227.20;;;;;;4977091;28;20026;-79
2021/04/08 01:06:09;;;;;;;36.53;22.20;;;51.40;2227.20;;;;;;4977127;28;20041;-79
2021/04/08 01:08:36;;;;;;;45.90;27.48;;;51.50;2227.20;;;;;;4994242;28;20030;-79
2021/04/08 01:11:02;;;;;;;45.85;23.98;;;51.60;2227.20;;;;;;4977491;28;20077;-77
2021/04/08 01:13:30;;;;;;;45.72;28.10;;;51.70;2227.20;;;;;;4994886;28;20390;-77
2021/04/08 01:16:03;;;;;;;32.45;18.17;;;51.60;2227.20;;;;;;4976750;28;20031;-76
2021/04/08 01:18:51;;;;;;;35.28;18.75;;;51.60;2227.20;;;;;;4976978;28;20034;-79
2021/04/08 01:21:41;;;;;;;28.45;17.30;;;51.70;2227.20;;;;;;4976319;28;20081;-77
2021/04/08 01:24:28;;;;;;;33.88;18.25;;;51.80;2227.20;;;;;;4994635;28;20081;-78
2021/04/08 01:27:24;;;;;;;40.25;21.88;;;51.80;2227.20;;;;;;4994588;28;20089;-80
2021/04/08 01:30:02;;;;;;;34.20;17.08;;;51.80;2227.20;;;;;;4992816;28;20027;-79
2021/04/08 01:32:29;;;;;;;26.83;16.10;;;51.70;2227.20;;;;;;4994408;28;20037;-79
2021/04/08 01:34:59;;;;;;;28.92;17.52;;;51.70;2227.20;;;;;;4994234;28;20030;-78
2021/04/08 01:37:39;;;;;;;28.00;16.90;;;51.70;2227.20;;;;;;4976705;28;20038;-79
2021/04/08 01:40:07;;;;;;;29.95;17.58;;;51.80;2227.20;;;;;;4976959;28;20018;-77
2021/04/08 01:42:34;;;;;;;41.53;26.48;;;51.80;2227.20;;;;;;4976397;28;20031;-78
2021/04/08 01:45:02;;;;;;;53.65;31.30;;;51.90;2227.20;;;;;;4975552;28;20157;-76
2021/04/08 01:47:29;;;;;;;52.63;30.38;;;51.90;2227.20;;;;;;4976906;28;20041;-78
2021/04/08 01:49:56;;;;;;;37.45;23.00;;;51.90;2227.20;;;;;;4975353;28;20026;-76
2021/04/08 01:52:23;;;;;;;26.67;16.75;;;52.00;2227.20;;;;;;4994066;28;20101;-80
2021/04/08 01:54:58;;;;;;;13.93;9.85;;;52.00;2227.20;;;;;;4994279;28;20085;-79
2021/04/08 01:57:26;;;;;;;15.02;9.45;;;52.10;2227.20;;;;;;4976067;28;20106;-79
2021/04/08 01:59:53;;;;;;;14.90;9.00;;;52.10;2227.20;;;;;;4994099;28;20138;-79
2021/04/08 02:02:19;;;;;;;18.10;10.73;;;52.10;2227.20;;;;;;4976528;28;20363;-79
2021/04/08 02:04:45;;;;;;;19.80;10.65;;;52.10;2227.20;;;;;;4976437;28;20038;-79
2021/04/08 02:07:13;;;;;;;21.02;11.30;;;76.90;2227.20;;;;;;4976553;28;20030;-79
2021/04/08 02:09:40;;;;;;;14.32;9.02;;;76.80;2227.20;;;;;;4976752;28;20026;-80
2021/04/08 02:12:09;;;;;;;12.50;7.72;;;76.80;2227.20;;;;;;4994871;28;20058;-78
2021/04/08 02:14:37;;;;;;;11.88;8.38;;;76.80;2227.20;;;;;;4979039;28;20121;-78
2021/04/08 02:17:04;;;;;;;13.75;8.98;;;76.80;2227.20;;;;;;4996992;28;20042;-81
2021/04/08 02:19:32;;;;;;;11.77;7.32;;;52.10;2227.20;;;;;;4979084;28;20481;-76
2021/04/08 02:21:59;;;;;;;14.85;8.75;;;52.10;2227.20;;;;;;4996398;28;20030;-80
2021/04/08 02:24:26;;;;;;;14.93;8.88;;;76.80;2227.20;;;;;;4979170;28;20031;-77
2021/04/08 02:26:52;;;;;;;20.80;11.52;;;76.80;2227.20;;;;;;4980321;28;20417;-77
2021/04/08 02:29:20;;;;;;;13.48;10.02;;;76.80;2227.20;;;;;;4979537;28;20061;-77
2021/04/08 02:31:47;;;;;;;15.02;9.10;;;76.80;2227.20;;;;;;4979419;28;20045;-76
2021/04/08 02:34:14;;;;;;;16.33;9.73;;;76.80;2227.20;;;;;;4980461;28;20073;-77
2021/04/08 02:36:40;;;;;;;15.90;9.45;;;76.80;2227.20;;;;;;4979625;28;20116;-79
2021/04/08 02:39:08;;;;;;;14.90;9.00;;;76.80;2227.20;;;;;;4996786;28;20030;-76
2021/04/08 02:41:45;;;;;;;16.85;9.70;;;76.80;2227.20;;;;;;4979595;28;20033;-76
2021/04/08 02:44:12;;;;;;;29.77;14.75;;;76.90;2227.20;;;;;;4978187;28;20041;-77
2021/04/08 02:46:38;;;;;;;16.50;9.05;;;76.90;2227.20;;;;;;4979183;28;20031;-77
2021/04/08 02:49:04;;;;;;;21.90;11.25;;;76.90;2227.20;;;;;;4978571;28;20121;-76
2021/04/08 02:51:45;;;;;;;27.88;13.77;;;77.40;2227.20;;;;;;4979181;28;20041;-77
2021/04/08 02:54:29;;;;;;;22.40;12.15;;;76.80;2227.20;;;;;;4979501;28;20027;-76
2021/04/08 02:56:58;;;;;;;22.85;12.68;;;76.80;2227.20;;;;;;4979127;28;20034;-78
2021/04/08 02:59:37;;;;;;;20.75;12.38;;;76.90;2227.20;;;;;;4979209;28;20035;-79
2021/04/08 03:02:08;;;;;;;17.45;10.55;;;76.90;2227.20;;;;;;4979688;28;20121;-78
2021/04/08 03:04:42;;;;;;;27.38;15.27;;;76.90;2227.20;;;;;;4979270;28;20422;-77
2021/04/08 03:07:10;;;;;;;28.48;17.42;;;76.90;2227.20;;;;;;4996481;28;20049;-77
2021/04/08 03:09:41;;;;;;;25.40;13.93;;;76.90;2227.20;;;;;;4979045;28;20093;-75
2021/04/08 03:12:09;;;;;;;22.75;13.82;;;76.90;2227.20;;;;;;4996455;28;20056;-75
2021/04/08 03:14:49;;;;;;;22.13;13.48;;;76.90;2227.20;;;;;;4978622;28;20023;-77
2021/04/08 03:17:19;;;;;;;23.13;14.30;;;76.90;2227.20;;;;;;4996742;28;20109;-77
2021/04/08 03:19:46;;;;;;;17.05;10.43;;;76.90;2227.20;;;;;;4978519;28;20038;-77
2021/04/08 03:22:14;;;;;;;26.63;14.25;;;77.00;2227.20;;;;;;4977391;28;20490;-76
2021/04/08 03:24:42;;;;;;;33.85;16.70;;;77.00;2227.20;;;;;;4996143;28;20022;-78
2021/04/08 03:27:09;;;;;;;32.95;15.60;;;76.90;2227.20;;;;;;4976792;28;20031;-78
2021/04/08 03:29:38;;;;;;;32.75;18.05;;;76.90;2227.20;;;;;;4960687;28;20026;-76
2021/04/08 03:32:05;;;;;;;23.80;13.85;;;77.00;2227.20;;;;;;4959036;28;20038;-77
2021/04/08 03:34:33;;;;;;;24.20;13.63;;;52.10;2227.20;;;;;;4958540;28;20065;-78
2021/04/08 03:36:59;;;;;;;31.80;17.65;;;77.00;2227.20;;;;;;4976572;28;20037;-78
2021/04/08 03:39:26;;;;;;;25.65;14.68;;;77.00;2227.20;;;;;;4976274;28;20031;-78
2021/04/08 03:41:54;;;;;;;23.27;12.50;;;77.00;2227.20;;;;;;4958872;28;20031;-77
2021/04/08 03:44:20;;;;;;;20.92;12.63;;;77.00;2227.20;;;;;;4976382;28;20035;-76
2021/04/08 03:46:47;;;;;;;19.63;11.77;;;77.10;2227.20;;;;;;4959255;28;20035;-76
2021/04/08 03:49:15;;;;;;;18.40;10.88;;;77.10;2227.20;;;;;;4976126;28;20034;-79
2021/04/08 03:51:42;;;;;;;18.92;10.63;;;77.10;2227.20;;;;;;4959441;28;20121;-78
2021/04/08 03:54:11;;;;;;;16.80;9.05;;;77.00;2227.20;;;;;;4958972;28;20023;-78
2021/04/08 03:56:42;;;;;;;15.48;9.13;;;77.10;2227.20;;;;;;4975929;28;20474;-78
2021/04/08 03:59:09;;;;;;;24.05;14.52;;;77.20;2227.20;;;;;;4971851;28;20081;-78
2021/04/08 04:01:37;;;;;;;21.10;11.80;;;77.10;2227.20;;;;;;4958577;28;20545;-78
2021/04/08 04:04:05;;;;;;;19.55;11.45;;;77.10;2227.20;;;;;;4957716;28;20023;-79
2021/04/08 04:06:34;;;;;;;16.00;10.00;;;77.10;2227.20;;;;;;4975891;28;20059;-75
2021/04/08 04:09:01;;;;;;;28.85;13.73;;;77.20;2227.20;;;;;;4958371;28;20110;-77
2021/04/08 04:11:28;;;;;;;41.08;24.50;;;77.20;2227.20;;;;;;4958523;28;20031;-77
2021/04/08 04:13:54;;;;;;;56.85;31.95;;;77.20;2227.20;;;;;;4959302;28;20031;-77
2021/04/08 04:16:21;;;;;;;57.97;34.83;;;77.20;2227.20;;;;;;4974806;28;20368;-79
2021/04/08 04:18:47;;;;;;;86.20;46.40;;;77.00;2227.20;;;;;;4958703;28;20034;-77
2021/04/08 04:21:13;;;;;;;47.10;23.15;;;77.20;2227.20;;;;;;4958832;28;20430;-77
2021/04/08 04:23:39;;;;;;;52.20;29.35;;;77.20;2227.20;;;;;;4958481;28;20082;-78
2021/04/08 04:26:04;;;;;;;46.55;26.98;;;77.30;2227.20;;;;;;4958357;28;20125;-79
2021/04/08 04:28:30;;;;;;;31.90;19.30;;;77.30;2227.20;;;;;;4975601;28;20023;-79
2021/04/08 04:30:56;;;;;;;29.85;21.17;;;77.40;2227.20;;;;;;4958033;28;20031;-78
2021/04/08 04:33:22;;;;;;;34.67;23.05;;;77.40;2227.20;;;;;;4958264;28;20374;-77
2021/04/08 04:35:47;;;;;;;41.92;27.23;;;77.40;2227.20;;;;;;4957611;28;20061;-78
2021/04/08 04:38:13;;;;;;;34.28;21.45;;;77.40;2227.20;;;;;;4957869;28;20098;-77
2021/04/08 04:40:39;;;;;;;42.35;25.45;;;77.40;2227.20;;;;;;4958221;28;20022;-76
2021/04/08 04:43:05;;;;;;;72.70;41.50;;;77.40;2227.20;;;;;;4974277;28;20023;-78
2021/04/08 04:45:31;;;;;;;119.82;61.00;;;77.40;2227.20;;;;;;4957823;28;20062;-80
2021/04/08 04:47:56;;;;;;;91.65;47.80;;;77.40;2227.20;;;;;;4957966;28;20038;-79
2021/04/08 04:50:22;;;;;;;77.53;42.38;;;77.40;2227.20;;;;;;4975573;28;20038;-80
2021/04/08 04:52:48;;;;;;;53.40;30.58;;;77.40;2227.20;;;;;;4957814;28;20023;-81
2021/04/08 04:55:14;;;;;;;46.17;27.50;;;77.40;2227.20;;;;;;4958072;28;20030;-78
2021/04/08 04:57:40;;;;;;;41.97;23.73;;;77.30;2227.20;;;;;;4975286;28;20113;-77
2021/04/08 05:00:06;;;;;;;41.83;26.80;;;77.30;2227.20;;;;;;4974838;28;20038;-79
2021/04/08 05:02:32;;;;;;;64.00;38.45;;;77.30;2227.20;;;;;;4975292;28;20027;-81
2021/04/08 05:04:58;;;;;;;78.25;47.03;;;77.40;2227.20;;;;;;4957550;28;20033;-79
2021/04/08 05:07:23;;;;;;;103.15;56.20;;;77.40;2227.20;;;;;;4957830;28;20031;-78
2021/04/08 05:09:49;;;;;;;141.48;74.75;;;77.50;2227.20;;;;;;4975035;28;20122;-78
2021/04/08 05:12:15;;;;;;;126.72;70.10;;;77.40;2227.20;;;;;;4957434;28;20057;-80
2021/04/08 05:14:41;;;;;;;108.25;61.60;;;77.50;2227.20;;;;;;4957653;28;20097;-79
2021/04/08 05:17:07;;;;;;;100.38;58.92;;;77.60;2227.20;;;;;;4957593;28;20045;-79
2021/04/08 05:19:32;;;;;;;140.82;82.13;;;77.50;2227.20;;;;;;4974761;28;20414;-78
2021/04/08 05:21:58;;;;;;;91.22;52.70;;;77.60;2227.20;;;;;;4958430;28;20078;-79
2021/04/08 05:24:24;;;;;;;68.30;41.17;;;77.60;2227.20;;;;;;4957665;28;20038;-81
2021/04/08 05:26:50;;;;;;;60.38;37.80;;;77.70;2227.20;;;;;;4957510;28;20031;-79
2021/04/08 05:29:16;;;;;;;123.40;65.40;;;77.70;2227.20;;;;;;4957752;28;20027;-79
2021/04/08 05:31:42;;;;;;;55.88;35.58;;;77.70;2227.20;;;;;;4975604;28;20023;-81
2021/04/08 05:34:08;;;;;;;101.50;58.70;;;102.40;2227.20;;;;;;4974894;28;20031;-79
2021/04/08 05:36:33;;;;;;;321.80;169.23;;;102.40;2227.20;;;;;;4957682;28;20094;-79
2021/04/08 05:38:59;;;;;;;329.52;183.32;;;102.40;2227.20;;;;;;4957785;28;20068;-79
2021/04/08 05:41:25;;;;;;;174.25;102.07;;;102.50;2227.20;;;;;;4974611;28;20406;-80
2021/04/08 05:43:51;;;;;;;91.40;55.42;;;102.50;2227.20;;;;;;4958153;28;20046;-80
2021/04/08 05:46:16;;;;;;;39.30;23.38;;;102.60;2227.20;;;;;;4959714;28;20462;-78
2021/04/08 05:48:42;;;;;;;35.70;21.63;;;102.60;2227.20;;;;;;4961163;28;20104;-81
2021/04/08 05:51:08;;;;;;;61.83;44.28;;;102.60;2227.20;;;;;;4978595;28;20034;-77
2021/04/08 05:53:34;;;;;;;86.82;52.35;;;102.60;2227.20;;;;;;4961791;28;20030;-76
2021/04/08 05:56:00;;;;;;;92.30;47.70;;;102.70;2227.20;;;;;;4960731;28;20023;-76
2021/04/08 05:58:25;;;;;;;59.05;35.85;;;102.70;2227.20;;;;;;4961107;28;20062;-76
2021/04/08 06:00:51;;;;;;;52.42;28.67;;;102.80;2227.20;;;;;;4978049;28;20466;-77
2021/04/08 06:03:17;;;;;;;43.05;25.45;;;102.80;2227.20;;;;;;4961107;28;20026;-76
2021/04/08 06:05:43;;;;;;;50.25;30.30;;;102.80;2227.20;;;;;;4961066;28;20379;-76
2021/04/08 06:08:09;;;;;;;32.97;21.55;;;102.90;2227.20;;;;;;4960600;28;20035;-76
2021/04/08 06:10:34;;;;;;;63.67;29.83;;;102.90;2227.20;;;;;;4978182;28;20029;-76
2021/04/08 06:13:00;;;;;;;33.47;18.25;;;103.00;2227.20;;;;;;4960829;28;20051;-77
2021/04/08 06:15:29;;;;;;;54.08;27.45;;;103.10;2227.20;;;;;;4960488;28;20034;-77
2021/04/08 06:17:55;;;;;;;25.38;15.82;;;103.30;2227.20;;;;;;4960840;28;20463;-75
2021/04/08 06:20:21;;;;;;;25.65;14.75;;;103.30;2227.20;;;;;;4977674;28;20394;-76
2021/04/08 06:22:52;;;;;;;48.00;23.70;;;128.20;2252.80;;;;;;4960729;28;20053;-78
2021/04/08 06:25:18;;;;;;;19.00;11.00;;;128.10;2252.80;;;;;;4976670;28;20031;-76
2021/04/08 06:27:43;;;;;;;42.28;24.60;;;128.20;2252.80;;;;;;4963808;28;20034;-77
2021/04/08 06:30:10;;;;;;;23.20;13.27;;;128.30;2252.80;;;;;;4979506;28;20117;-77
2021/04/08 06:32:36;;;;;;;39.78;18.50;;;128.30;2252.80;;;;;;4978928;28;20030;-77
2021/04/08 06:35:03;;;;;;;31.15;18.33;;;128.10;2252.80;;;;;;4979693;28;20355;-76
2021/04/08 06:37:28;;;;;;;56.33;25.17;;;128.10;2252.80;;;;;;4979307;28;20457;-77
2021/04/08 06:39:54;;;;;;;53.45;34.65;;;128.20;2252.80;;;;;;4979648;28;20081;-76
2021/04/08 06:42:22;;;;;;;32.40;19.70;;;128.20;2252.80;;;;;;4979486;28;20034;-76
2021/04/08 06:44:50;;;;;;;31.48;15.80;;;128.30;2252.80;;;;;;4978168;28;20121;-77
2021/04/08 06:47:25;;;;;;;15.63;10.02;;;128.20;2252.80;;;;;;4980130;28;20034;-76
2021/04/08 06:49:56;;;;;;;17.90;9.85;;;128.10;2252.80;;;;;;4978155;28;20027;-77
2021/04/08 06:52:23;;;;;;;57.50;38.67;;;128.20;2252.80;;;;;;4997248;28;20022;-78
2021/04/08 06:54:50;;;;;;;26.77;13.80;;;103.20;2227.20;;;;;;4979431;28;20033;-75
2021/04/08 06:57:19;;;;;;;23.50;14.85;;;128.40;2252.80;;;;;;4978192;28;20031;-75
2021/04/08 06:59:48;;;;;;;13.48;9.32;;;128.50;2252.80;;;;;;4996841;28;20081;-78
2021/04/08 07:02:17;;;;;;;20.98;13.13;;;128.50;2252.80;;;;;;4979112;28;20023;-77
2021/04/08 07:04:44;;;;;;;34.00;24.35;;;128.40;2252.80;;;;;;4978796;28;20030;-75
2021/04/08 07:07:10;;;;;;;22.40;14.48;;;153.60;2252.80;;;;;;4979179;28;20053;-77
2021/04/08 07:09:36;;;;;;;40.05;24.25;;;128.50;2201.60;;;;;;4996286;28;20022;-76
2021/04/08 07:12:02;;;;;;;13.93;10.13;;;128.60;2252.80;;;;;;4978555;28;20053;-75
2021/04/08 07:14:29;;;;;;;11.25;7.40;;;128.60;2124.80;;;;;;4979538;28;20026;-76
2021/04/08 07:16:54;;;;;;;30.35;21.38;;;128.80;2048.00;;;;;;4978856;28;20102;-77
2021/04/08 07:19:20;;;;;;;18.17;11.15;;;128.40;2073.60;;;;;;4978264;28;20034;-75
2021/04/08 07:21:47;;;;;;;17.63;11.00;;;128.30;2099.20;;;;;;4978804;28;20120;-75
2021/04/08 07:24:16;;;;;;;13.00;8.57;;;128.50;2124.80;;;;;;4994792;28;20110;-77
2021/04/08 07:27:02;;;;;;;24.55;14.30;;;128.60;2099.20;;;;;;4978446;28;20474;-75
2021/04/08 07:29:40;;;;;;;30.98;16.58;;;128.80;2176.00;;;;;;4977929;28;20031;-75
2021/04/08 07:32:06;;;;;;;37.40;20.67;;;128.80;1971.20;;;;;;4994683;28;20378;-75
2021/04/08 07:34:38;;;;;;;27.88;17.58;;;128.80;1996.80;;;;;;4994986;28;20077;-76
2021/04/08 07:37:05;;;;;;;15.80;10.15;;;128.90;1996.80;;;;;;4978441;28;20062;-76
2021/04/08 07:39:45;;;;;;;22.38;13.25;;;128.90;2022.40;;;;;;4977239;28;20038;-76
2021/04/08 07:42:26;;;;;;;26.15;15.75;;;128.70;2099.20;;;;;;4978453;28;20525;-74
2021/04/08 07:44:55;;;;;;;19.42;13.63;;;153.70;1996.80;;;;;;4979069;28;20072;-74
2021/04/08 07:47:27;;;;;;;16.33;11.23;;;153.60;1920.00;;;;;;4994294;28;20031;-76
2021/04/08 07:49:56;;;;;;;12.63;9.83;;;128.90;1945.60;;;;;;4978435;28;20026;-74
2021/04/08 07:52:43;;;;;;;14.02;9.10;;;153.60;1843.20;;;;;;4995795;28;20022;-76
2021/04/08 07:55:16;;;;;;;8.23;5.97;;;153.60;1817.60;;;;;;4993367;28;20034;-76
2021/04/08 07:58:01;;;;;;;10.02;7.68;;;153.60;1792.00;;;;;;4978117;28;20085;-74
2021/04/08 08:00:51;;;;;;;26.00;17.00;;;153.60;1894.40;;;;;;4976233;28;20038;-75
2021/04/08 08:03:20;;;;;;;13.65;7.40;;;153.80;1894.40;;;;;;4977771;28;20082;-76
2021/04/08 08:05:47;;;;;;;17.50;11.20;;;153.70;1817.60;;;;;;4977010;28;20481;-75
2021/04/08 08:08:14;;;;;;;11.65;6.88;;;153.90;1894.40;;;;;;4995199;28;20454;-75
2021/04/08 08:10:43;;;;;;;7.97;5.63;;;153.90;1868.80;;;;;;4977116;28;20492;-74
2021/04/08 08:13:26;;;;;;;44.95;26.67;;;153.90;1766.40;;;;;;4995102;28;20046;-73
2021/04/08 08:15:52;;;;;;;;;;;154.00;1868.80;;;;;;4995570;28;20455;-73
2021/04/08 08:18:39;;;;;;;47.83;27.25;;;153.90;1945.60;;;;;;4995177;28;19967;-73
2021/04/08 08:21:06;;;;;;;35.17;20.48;;;154.00;1971.20;;;;;;4977567;28;20035;-75
2021/04/08 08:23:36;;;;;;;30.60;18.90;;;154.00;1945.60;;;;;;4977707;28;20440;-73
2021/04/08 08:26:36;;;;;;;28.02;17.13;;;154.10;1920.00;;;;;;4977742;28;20027;-73
2021/04/08 08:29:11;;;;;;;14.68;9.05;;;154.50;1843.20;;;;;;4994799;28;20022;-73
2021/04/08 08:31:49;;;;;;;39.45;22.35;;;154.50;1817.60;;;;;;4995033;28;20026;-73
2021/04/08 08:34:32;;;;;;;21.33;12.27;;;154.50;1792.00;;;;;;4977485;28;20053;-70
2021/04/08 08:37:09;;;;;;;20.77;12.77;;;154.30;1792.00;;;;;;4994599;28;20031;-71
2021/04/08 08:39:38;;;;;;;28.10;16.80;;;154.30;1766.40;;;;;;4978040;28;20030;-71
2021/04/08 08:42:06;;;;;;;23.88;12.57;;;179.20;1817.60;;;;;;4977010;28;20037;-70
2021/04/08 08:44:34;;;;;;;59.30;29.70;;;179.40;1740.80;;;;;;4977246;28;20489;-70
2021/04/08 08:47:04;;;;;;;71.55;37.70;;;179.70;1740.80;;;;;;4977825;28;20041;-71
2021/04/08 08:49:42;;;;;;;60.33;32.17;;;179.90;1792.00;;;;;;4976959;28;20030;-73
2021/04/08 08:52:11;;;;;;;15.55;9.65;;;179.80;1715.20;;;;;;4994805;28;20026;-71
2021/04/08 08:54:36;;;;;;;13.38;8.88;;;179.70;1664.00;;;;;;4994621;28;20474;-72
2021/04/08 08:57:04;;;;;;;25.02;20.30;;;179.60;1664.00;;;;;;4976792;28;20037;-72
2021/04/08 08:59:31;;;;;;;18.70;10.52;;;179.40;1638.40;;;;;;4977164;28;20033;-71
2021/04/08 09:01:58;;;;;;;15.50;10.38;;;179.30;1766.40;;;;;;4994193;28;20057;-72
2021/04/08 09:04:24;;;;;;;16.75;11.35;;;179.70;1740.80;;;;;;4976762;28;20081;-72
2021/04/08 09:06:51;;;;;;;23.63;10.77;;;179.80;1740.80;;;;;;4977063;28;20034;-71
2021/04/08 09:09:21;;;;;;;21.08;12.88;;;180.10;1740.80;;;;;;4975448;28;20026;-72
2021/04/08 09:11:48;;;;;;;17.88;10.80;;;205.20;1664.00;;;;;;4992576;28;20042;-71
2021/04/08 09:14:15;;;;;;;33.65;22.23;;;204.80;1715.20;;;;;;4993460;28;20035;-72
2021/04/08 09:16:46;;;;;;;22.75;14.50;;;204.90;1792.00;;;;;;4976206;28;20041;-71
2021/04/08 09:19:13;;;;;;;13.68;7.90;;;180.10;1740.80;;;;;;4994401;28;20113;-71
2021/04/08 09:21:43;;;;;;;23.90;13.98;;;204.80;1664.00;;;;;;4980796;28;20117;-72
2021/04/08 09:24:12;;;;;;;10.68;6.60;;;204.90;1638.40;;;;;;4983375;28;20026;-71
2021/04/08 09:26:42;;;;;;;21.25;13.80;;;180.10;1612.80;;;;;;5001144;28;20425;-71
2021/04/08 09:29:10;;;;;;;14.18;7.63;;;180.00;1638.40;;;;;;5000876;28;20053;-71
2021/04/08 09:31:36;;;;;;;23.63;14.27;;;179.80;1664.00;;;;;;5001068;28;20422;-70
2021/04/08 09:34:04;;;;;;;17.33;8.98;;;180.00;1664.00;;;;;;4983206;28;20057;-71
2021/04/08 09:36:40;;;;;;;16.27;9.80;;;180.10;1587.20;;;;;;5000880;28;20026;-71
2021/04/08 09:39:06;;;;;;;13.57;8.70;;;205.10;1612.80;;;;;;5000314;28;20060;-72
2021/04/08 09:41:53;;;;;;;17.67;9.15;;;205.10;1612.80;;;;;;4983123;28;20543;-72
2021/04/08 09:44:20;;;;;;;15.85;12.18;;;205.00;1638.40;;;;;;4999460;28;20049;-72
2021/04/08 09:46:55;;;;;;;18.08;12.05;;;205.10;1638.40;;;;;;4982848;28;20038;-71
2021/04/08 09:49:53;;;;;;;11.90;8.00;;;205.10;1612.80;;;;;;4999579;28;20022;-71
2021/04/08 09:52:19;;;;;;;17.70;10.82;;;205.20;1484.80;;;;;;4930220;28;20034;-74
2021/04/08 09:54:58;;;;;;;19.35;12.38;;;205.50;1510.40;;;;;;4982619;28;20041;-73
2021/04/08 09:57:36;;;;;;;12.55;6.75;;;205.20;1433.60;;;;;;4980697;28;20042;-73
2021/04/08 10:00:13;;;;;;;12.27;7.97;;;205.10;1536.00;;;;;;4998435;28;20073;-72
2021/04/08 10:02:55;;;;;;;44.67;30.58;;;205.00;1587.20;;;;;;4999419;28;20105;-74
2021/04/08 10:05:20;;;;;;;59.88;41.00;;;205.00;1638.40;;;;;;4998876;28;20029;-73
2021/04/08 10:07:54;;;;;;;22.58;16.75;;;204.80;1587.20;;;;;;4982619;28;20034;-73
2021/04/08 10:10:25;;;;;;;34.17;24.40;;;205.10;1561.60;;;;;;5000483;28;20029;-76
2021/04/08 10:12:51;;;;;;;23.13;13.95;;;205.10;1612.80;;;;;;5000024;28;20486;-76
2021/04/08 10:15:32;;;;;;;20.05;10.23;;;205.40;1536.00;;;;;;4998065;28;20026;-76
2021/04/08 10:17:59;;;;;;;46.75;29.55;;;205.60;1433.60;;;;;;4982290;28;20583;-77
2021/04/08 10:20:39;;;;;;;17.92;10.43;;;205.40;1484.80;;;;;;4981436;28;20058;-76
2021/04/08 10:23:05;;;;;;;7.55;5.55;;;205.40;1587.20;;;;;;5000245;28;20077;-75
2021/04/08 10:25:32;;;;;;;8.55;5.88;;;205.50;1433.60;;;;;;4982669;28;20429;-76
2021/04/08 10:27:58;;;;;;;21.92;10.60;;;230.50;1459.20;;;;;;4999766;28;20022;-76
2021/04/08 10:30:24;;;;;;;29.48;17.40;;;205.70;1459.20;;;;;;4982846;28;20379;-76
2021/04/08 10:32:51;;;;;;;28.00;20.13;;;205.70;1536.00;;;;;;4997399;28;20022;-77
2021/04/08 10:35:23;;;;;;;20.92;14.55;;;205.70;1561.60;;;;;;4996821;28;20030;-76
2021/04/08 10:38:10;;;;;;;15.10;8.40;;;205.60;1510.40;;;;;;4995842;28;20041;-76
2021/04/08 10:40:36;;;;;;;11.40;7.05;;;205.60;1536.00;;;;;;4979911;28;20441;-76
2021/04/08 10:43:14;;;;;;;17.38;9.50;;;205.50;1510.40;;;;;;4979273;28;20033;-76
2021/04/08 10:45:56;;;;;;;44.35;25.35;;;205.70;1561.60;;;;;;4978346;28;20113;-77
2021/04/08 10:48:24;;;;;;;40.97;25.15;;;205.70;1587.20;;;;;;4996228;28;20031;-77
2021/04/08 10:50:51;;;;;;;37.83;22.35;;;230.40;1561.60;;;;;;4978675;28;20030;-77
2021/04/08 10:53:25;;;;;;;29.50;17.17;;;231.10;1561.60;;;;;;4979327;28;20030;-77
2021/04/08 10:55:51;;;;;;;28.17;19.33;;;231.20;1510.40;;;;;;4996585;28;20105;-76
2021/04/08 10:58:28;;;;;;;19.55;13.05;;;231.10;1510.40;;;;;;4979300;28;20367;-77
2021/04/08 11:00:55;;;;;;;23.08;12.98;;;231.00;1484.80;;;;;;4979032;28;20034;-77
2021/04/08 11:03:22;;;;;;;22.30;12.73;;;230.60;1433.60;;;;;;4978809;28;20034;-77
2021/04/08 11:05:49;;;;;;;16.38;9.98;;;230.90;1510.40;;;;;;4979317;28;20030;-77
2021/04/08 11:08:15;;;;;;;10.95;6.35;;;230.70;1382.40;;;;;;4979169;28;20030;-80
2021/04/08 11:10:41;;;;;;;21.90;13.50;;;230.50;1382.40;;;;;;4978487;28;20098;-77
2021/04/08 11:13:09;;;;;;;20.85;10.50;;;230.40;1459.20;;;;;;4978764;28;20197;-78
2021/04/08 11:15:36;;;;;;;19.10;9.60;;;230.50;1510.40;;;;;;4996524;28;20030;-77
2021/04/08 11:18:08;;;;;;;30.05;14.07;;;230.60;1459.20;;;;;;4978509;28;20057;-77
2021/04/08 11:20:40;;;;;;;26.58;16.55;;;231.00;1433.60;;;;;;4978929;28;20030;-76
2021/04/08 11:23:08;;;;;;;25.00;17.47;;;256.30;1484.80;;;;;;4978634;28;20136;-76
2021/04/08 11:25:35;;;;;;;23.13;16.05;;;256.00;1484.80;;;;;;4978567;28;20035;-79
2021/04/08 11:28:03;;;;;;;22.27;14.52;;;256.00;1484.80;;;;;;4996211;28;20553;-77
2021/04/08 11:30:34;;;;;;;23.50;14.75;;;231.00;1510.40;;;;;;4978344;28;20033;-76
2021/04/08 11:33:00;;;;;;;16.55;10.18;;;230.80;1510.40;;;;;;4978580;28;20058;-78
2021/04/08 11:35:32;;;;;;;11.88;7.97;;;230.60;1408.00;;;;;;4976251;28;20125;-79
2021/04/08 11:38:13;;;;;;;13.45;8.23;;;230.90;1433.60;;;;;;4980171;28;20481;-77
2021/04/08 11:40:45;;;;;;;12.57;8.05;;;256.80;1433.60;;;;;;4994538;28;20023;-78
2021/04/08 11:43:50;;;;;;;15.55;7.38;;;282.20;1356.80;;;;;;4993991;28;20026;-80
2021/04/08 11:46:43;;;;;;;18.65;10.68;;;282.10;1356.80;;;;;;4994312;28;20162;-80
2021/04/08 11:49:20;;;;;;;24.92;12.73;;;281.70;1254.40;;;;;;4973823;28;20037;-77
2021/04/08 11:51:48;;;;;;;14.07;7.90;;;256.40;1280.00;;;;;;4994189;28;20030;-79
2021/04/08 11:54:16;;;;;;;18.27;9.35;;;256.20;1331.20;;;;;;4977003;28;20026;-77
2021/04/08 11:56:44;;;;;;;9.63;5.78;;;256.10;1356.80;;;;;;4976309;28;20038;-77
2021/04/08 11:59:24;;;;;;;17.48;10.68;;;256.60;1280.00;;;;;;4977367;28;20037;-79
2021/04/08 12:01:54;;;;;;;18.30;10.60;;;281.80;1408.00;;;;;;4975756;28;20134;-78
2021/04/08 12:04:25;;;;;;;19.45;14.13;;;307.20;1382.40;;;;;;4995510;28;20031;-79
2021/04/08 12:07:06;;;;;;;13.07;8.43;;;307.20;1228.80;;;;;;4975522;28;20026;-79
2021/04/08 12:09:58;;;;;;;14.27;9.50;;;281.60;1254.40;;;;;;4974878;28;20034;-78
2021/04/08 12:12:31;;;;;;;19.50;11.35;;;256.80;1305.60;;;;;;4990236;28;20046;-77
2021/04/08 12:15:03;;;;;;;10.93;7.75;;;256.60;1408.00;;;;;;4994368;28;20030;-78
2021/04/08 12:17:30;;;;;;;10.48;6.25;;;256.50;1331.20;;;;;;4976658;28;20129;-77